sensor_id;sensor_type;location;lat;lon;timestamp;temperature;humidity
46926;DHT22;32667;48.248;-1.700;2023-07-02T00:01:51;17.00;63.20
46926;DHT22;32667;48.248;-1.700;2023-07-02T00:04:17;17.00;63.20
46926;DHT22;32667;48.248;-1.700;2023-07-02T00:06:45;17.00;63.30
46926;DHT22;32667;48.248;-1.700;2023-07-02T00:09:12;16.90;63.20
46926;DHT22;32667;48.248;-1.700;2023-07-02T00:11:38;16.90;63.30
46926;DHT22;32667;48.248;-1.700;2023-07-02T00:14:05;16.80;63.30
46926;DHT22;32667;48.248;-1.700;2023-07-02T00:16:31;16.80;63.30
46926;DHT22;32667;48.248;-1.700;2023-07-02T00:18:58;16.80;63.40
46926;DHT22;32667;48.248;-1.700;2023-07-02T00:21:29;16.80;63.40
46926;DHT22;32667;48.248;-1.700;2023-07-02T00:23:58;16.80;63.40
46926;DHT22;32667;48.248;-1.700;2023-07-02T00:26:25;16.70;63.50
46926;DHT22;32667;48.248;-1.700;2023-07-02T00:28:52;16.70;63.60
46926;DHT22;32667;48.248;-1.700;2023-07-02T00:31:18;16.60;63.50
46926;DHT22;32667;48.248;-1.700;2023-07-02T00:33:44;16.60;63.50
46926;DHT22;32667;48.248;-1.700;2023-07-02T00:36:10;16.60;63.50
46926;DHT22;32667;48.248;-1.700;2023-07-02T00:38:41;16.60;63.60
46926;DHT22;32667;48.248;-1.700;2023-07-02T00:41:08;16.60;63.50
46926;DHT22;32667;48.248;-1.700;2023-07-02T00:43:34;16.60;63.60
46926;DHT22;32667;48.248;-1.700;2023-07-02T00:46:01;16.50;63.60
46926;DHT22;32667;48.248;-1.700;2023-07-02T00:48:29;16.40;63.60
46926;DHT22;32667;48.248;-1.700;2023-07-02T00:50:55;16.40;63.70
46926;DHT22;32667;48.248;-1.700;2023-07-02T00:53:22;16.40;63.70
46926;DHT22;32667;48.248;-1.700;2023-07-02T00:55:47;16.30;63.60
46926;DHT22;32667;48.248;-1.700;2023-07-02T00:58:13;16.40;63.60
46926;DHT22;32667;48.248;-1.700;2023-07-02T01:00:42;16.40;63.60
46926;DHT22;32667;48.248;-1.700;2023-07-02T01:03:11;16.30;63.60
46926;DHT22;32667;48.248;-1.700;2023-07-02T01:05:37;16.30;63.60
46926;DHT22;32667;48.248;-1.700;2023-07-02T01:08:06;16.30;63.70
46926;DHT22;32667;48.248;-1.700;2023-07-02T01:10:32;16.30;63.70
46926;DHT22;32667;48.248;-1.700;2023-07-02T01:13:04;16.20;63.60
46926;DHT22;32667;48.248;-1.700;2023-07-02T01:15:33;16.20;63.60
46926;DHT22;32667;48.248;-1.700;2023-07-02T01:18:03;16.20;63.60
46926;DHT22;32667;48.248;-1.700;2023-07-02T01:20:29;16.20;63.70
46926;DHT22;32667;48.248;-1.700;2023-07-02T01:22:57;16.10;63.70
46926;DHT22;32667;48.248;-1.700;2023-07-02T01:25:23;16.10;63.70
46926;DHT22;32667;48.248;-1.700;2023-07-02T01:27:50;16.00;63.70
46926;DHT22;32667;48.248;-1.700;2023-07-02T01:30:16;16.00;63.80
46926;DHT22;32667;48.248;-1.700;2023-07-02T01:32:42;16.00;63.80
46926;DHT22;32667;48.248;-1.700;2023-07-02T01:35:08;15.90;63.80
46926;DHT22;32667;48.248;-1.700;2023-07-02T01:37:34;15.90;63.80
46926;DHT22;32667;48.248;-1.700;2023-07-02T01:40:03;15.90;63.80
46926;DHT22;32667;48.248;-1.700;2023-07-02T01:42:32;15.90;63.70
46926;DHT22;32667;48.248;-1.700;2023-07-02T01:44:58;15.90;63.70
46926;DHT22;32667;48.248;-1.700;2023-07-02T01:47:24;15.90;63.70
46926;DHT22;32667;48.248;-1.700;2023-07-02T01:49:52;15.90;63.70
46926;DHT22;32667;48.248;-1.700;2023-07-02T01:52:18;15.90;63.80
46926;DHT22;32667;48.248;-1.700;2023-07-02T01:54:45;15.80;63.70
46926;DHT22;32667;48.248;-1.700;2023-07-02T01:57:11;15.80;63.70
46926;DHT22;32667;48.248;-1.700;2023-07-02T01:59:37;15.80;63.80
46926;DHT22;32667;48.248;-1.700;2023-07-02T02:02:03;15.80;63.80
46926;DHT22;32667;48.248;-1.700;2023-07-02T02:04:29;15.80;63.70
46926;DHT22;32667;48.248;-1.700;2023-07-02T02:06:55;15.80;63.70
46926;DHT22;32667;48.248;-1.700;2023-07-02T02:09:21;15.80;63.60
46926;DHT22;32667;48.248;-1.700;2023-07-02T02:11:50;15.70;63.60
46926;DHT22;32667;48.248;-1.700;2023-07-02T02:14:17;15.70;63.70
46926;DHT22;32667;48.248;-1.700;2023-07-02T02:16:43;15.70;63.70
46926;DHT22;32667;48.248;-1.700;2023-07-02T02:19:12;15.70;63.70
46926;DHT22;32667;48.248;-1.700;2023-07-02T02:21:41;15.70;63.80
46926;DHT22;32667;48.248;-1.700;2023-07-02T02:24:07;15.70;63.70
46926;DHT22;32667;48.248;-1.700;2023-07-02T02:26:34;15.60;63.70
46926;DHT22;32667;48.248;-1.700;2023-07-02T02:29:00;15.60;63.70
46926;DHT22;32667;48.248;-1.700;2023-07-02T02:31:30;15.70;63.80
46926;DHT22;32667;48.248;-1.700;2023-07-02T02:33:56;15.60;63.70
46926;DHT22;32667;48.248;-1.700;2023-07-02T02:36:22;15.60;63.60
46926;DHT22;32667;48.248;-1.700;2023-07-02T02:38:49;15.60;63.70
46926;DHT22;32667;48.248;-1.700;2023-07-02T02:41:17;15.60;63.70
46926;DHT22;32667;48.248;-1.700;2023-07-02T02:43:46;15.60;63.80
46926;DHT22;32667;48.248;-1.700;2023-07-02T02:46:12;15.50;63.70
46926;DHT22;32667;48.248;-1.700;2023-07-02T02:48:44;15.60;63.70
46926;DHT22;32667;48.248;-1.700;2023-07-02T02:51:10;15.60;63.60
46926;DHT22;32667;48.248;-1.700;2023-07-02T02:53:36;15.60;63.60
46926;DHT22;32667;48.248;-1.700;2023-07-02T02:56:01;15.60;63.60
46926;DHT22;32667;48.248;-1.700;2023-07-02T02:58:27;15.60;63.60
46926;DHT22;32667;48.248;-1.700;2023-07-02T03:00:53;15.50;63.60
46926;DHT22;32667;48.248;-1.700;2023-07-02T03:03:24;15.60;63.60
46926;DHT22;32667;48.248;-1.700;2023-07-02T03:05:51;15.60;63.60
46926;DHT22;32667;48.248;-1.700;2023-07-02T03:08:17;15.60;63.60
46926;DHT22;32667;48.248;-1.700;2023-07-02T03:10:43;15.50;63.60
46926;DHT22;32667;48.248;-1.700;2023-07-02T03:13:09;15.50;63.60
46926;DHT22;32667;48.248;-1.700;2023-07-02T03:15:34;15.50;63.60
46926;DHT22;32667;48.248;-1.700;2023-07-02T03:18:00;15.50;63.60
46926;DHT22;32667;48.248;-1.700;2023-07-02T03:20:26;15.50;63.60
46926;DHT22;32667;48.248;-1.700;2023-07-02T03:22:51;15.50;63.70
46926;DHT22;32667;48.248;-1.700;2023-07-02T03:25:17;15.50;63.80
46926;DHT22;32667;48.248;-1.700;2023-07-02T03:27:48;15.40;63.70
46926;DHT22;32667;48.248;-1.700;2023-07-02T03:30:14;15.50;63.80
46926;DHT22;32667;48.248;-1.700;2023-07-02T03:32:40;15.40;63.70
46926;DHT22;32667;48.248;-1.700;2023-07-02T03:35:06;15.40;63.80
46926;DHT22;32667;48.248;-1.700;2023-07-02T03:37:31;15.40;63.80
46926;DHT22;32667;48.248;-1.700;2023-07-02T03:39:57;15.40;63.80
46926;DHT22;32667;48.248;-1.700;2023-07-02T03:42:26;15.30;63.80
46926;DHT22;32667;48.248;-1.700;2023-07-02T03:44:52;15.30;63.80
46926;DHT22;32667;48.248;-1.700;2023-07-02T03:47:17;15.30;63.80
46926;DHT22;32667;48.248;-1.700;2023-07-02T03:49:45;15.30;63.80
46926;DHT22;32667;48.248;-1.700;2023-07-02T03:52:10;15.30;63.80
46926;DHT22;32667;48.248;-1.700;2023-07-02T03:54:36;15.30;63.80
46926;DHT22;32667;48.248;-1.700;2023-07-02T03:57:02;15.30;63.80
46926;DHT22;32667;48.248;-1.700;2023-07-02T03:59:28;15.30;63.80
46926;DHT22;32667;48.248;-1.700;2023-07-02T04:01:56;15.20;63.80
46926;DHT22;32667;48.248;-1.700;2023-07-02T04:04:21;15.20;64.00
46926;DHT22;32667;48.248;-1.700;2023-07-02T04:06:47;15.20;64.00
46926;DHT22;32667;48.248;-1.700;2023-07-02T04:09:13;15.20;63.90
46926;DHT22;32667;48.248;-1.700;2023-07-02T04:11:38;15.20;63.90
46926;DHT22;32667;48.248;-1.700;2023-07-02T04:14:09;15.10;64.00
46926;DHT22;32667;48.248;-1.700;2023-07-02T04:16:35;15.10;64.00
46926;DHT22;32667;48.248;-1.700;2023-07-02T04:19:00;15.10;64.00
46926;DHT22;32667;48.248;-1.700;2023-07-02T04:21:29;15.10;64.00
46926;DHT22;32667;48.248;-1.700;2023-07-02T04:23:54;15.10;64.00
46926;DHT22;32667;48.248;-1.700;2023-07-02T04:26:20;15.10;64.00
46926;DHT22;32667;48.248;-1.700;2023-07-02T04:28:46;15.10;63.90
46926;DHT22;32667;48.248;-1.700;2023-07-02T04:31:11;15.20;63.90
46926;DHT22;32667;48.248;-1.700;2023-07-02T04:33:40;15.20;63.90
46926;DHT22;32667;48.248;-1.700;2023-07-02T04:36:06;15.10;63.90
46926;DHT22;32667;48.248;-1.700;2023-07-02T04:38:31;15.10;63.90
46926;DHT22;32667;48.248;-1.700;2023-07-02T04:41:00;15.10;63.90
46926;DHT22;32667;48.248;-1.700;2023-07-02T04:43:36;15.10;63.90
46926;DHT22;32667;48.248;-1.700;2023-07-02T04:46:01;15.10;64.00
46926;DHT22;32667;48.248;-1.700;2023-07-02T04:48:28;15.10;64.00
46926;DHT22;32667;48.248;-1.700;2023-07-02T04:50:53;15.00;64.00
46926;DHT22;32667;48.248;-1.700;2023-07-02T04:53:19;15.00;64.00
46926;DHT22;32667;48.248;-1.700;2023-07-02T04:55:45;15.00;64.60
46926;DHT22;32667;48.248;-1.700;2023-07-02T04:58:11;15.00;64.00
46926;DHT22;32667;48.248;-1.700;2023-07-02T05:00:39;15.00;63.90
46926;DHT22;32667;48.248;-1.700;2023-07-02T05:03:04;15.00;64.00
46926;DHT22;32667;48.248;-1.700;2023-07-02T05:05:30;15.00;64.00
46926;DHT22;32667;48.248;-1.700;2023-07-02T05:07:56;15.00;64.00
46926;DHT22;32667;48.248;-1.700;2023-07-02T05:10:22;15.00;64.00
46926;DHT22;32667;48.248;-1.700;2023-07-02T05:12:47;15.00;64.00
46926;DHT22;32667;48.248;-1.700;2023-07-02T05:15:13;15.00;64.10
46926;DHT22;32667;48.248;-1.700;2023-07-02T05:17:43;15.00;64.00
46926;DHT22;32667;48.248;-1.700;2023-07-02T05:20:09;15.00;64.00
46926;DHT22;32667;48.248;-1.700;2023-07-02T05:22:35;15.00;64.00
46926;DHT22;32667;48.248;-1.700;2023-07-02T05:25:01;15.00;63.90
46926;DHT22;32667;48.248;-1.700;2023-07-02T05:27:27;15.00;63.90
46926;DHT22;32667;48.248;-1.700;2023-07-02T05:29:52;15.00;63.90
46926;DHT22;32667;48.248;-1.700;2023-07-02T05:32:18;15.00;63.90
46926;DHT22;32667;48.248;-1.700;2023-07-02T05:34:46;15.10;63.80
46926;DHT22;32667;48.248;-1.700;2023-07-02T05:37:12;15.10;63.80
46926;DHT22;32667;48.248;-1.700;2023-07-02T05:39:38;15.10;63.70
46926;DHT22;32667;48.248;-1.700;2023-07-02T05:42:04;15.20;63.70
46926;DHT22;32667;48.248;-1.700;2023-07-02T05:44:29;15.20;63.60
46926;DHT22;32667;48.248;-1.700;2023-07-02T05:46:55;15.20;63.50
46926;DHT22;32667;48.248;-1.700;2023-07-02T05:49:21;15.20;63.50
46926;DHT22;32667;48.248;-1.700;2023-07-02T05:51:47;15.30;63.50
46926;DHT22;32667;48.248;-1.700;2023-07-02T05:54:13;15.40;63.40
46926;DHT22;32667;48.248;-1.700;2023-07-02T05:56:39;15.40;63.30
46926;DHT22;32667;48.248;-1.700;2023-07-02T05:59:04;15.50;63.30
46926;DHT22;32667;48.248;-1.700;2023-07-02T06:01:30;15.50;63.20
46926;DHT22;32667;48.248;-1.700;2023-07-02T06:03:58;15.50;63.20
46926;DHT22;32667;48.248;-1.700;2023-07-02T06:06:26;15.60;63.10
46926;DHT22;32667;48.248;-1.700;2023-07-02T06:08:52;15.60;63.10
46926;DHT22;32667;48.248;-1.700;2023-07-02T06:11:18;15.70;63.10
46926;DHT22;32667;48.248;-1.700;2023-07-02T06:13:44;15.70;62.90
46926;DHT22;32667;48.248;-1.700;2023-07-02T06:16:09;15.80;62.80
46926;DHT22;32667;48.248;-1.700;2023-07-02T06:18:35;15.90;62.80
46926;DHT22;32667;48.248;-1.700;2023-07-02T06:21:01;16.00;62.70
46926;DHT22;32667;48.248;-1.700;2023-07-02T06:23:27;16.00;62.60
46926;DHT22;32667;48.248;-1.700;2023-07-02T06:25:53;16.10;62.40
46926;DHT22;32667;48.248;-1.700;2023-07-02T06:28:26;16.30;62.40
46926;DHT22;32667;48.248;-1.700;2023-07-02T06:30:54;16.40;62.20
46926;DHT22;32667;48.248;-1.700;2023-07-02T06:33:20;16.50;62.00
46926;DHT22;32667;48.248;-1.700;2023-07-02T06:35:46;16.60;61.90
46926;DHT22;32667;48.248;-1.700;2023-07-02T06:38:12;16.70;61.80
46926;DHT22;32667;48.248;-1.700;2023-07-02T06:40:37;16.80;61.70
46926;DHT22;32667;48.248;-1.700;2023-07-02T06:43:03;17.00;61.60
46926;DHT22;32667;48.248;-1.700;2023-07-02T06:45:29;17.10;61.50
46926;DHT22;32667;48.248;-1.700;2023-07-02T06:47:57;17.20;61.40
46926;DHT22;32667;48.248;-1.700;2023-07-02T06:50:25;17.30;61.30
46926;DHT22;32667;48.248;-1.700;2023-07-02T06:52:53;17.40;61.20
46926;DHT22;32667;48.248;-1.700;2023-07-02T06:55:18;17.50;61.20
46926;DHT22;32667;48.248;-1.700;2023-07-02T06:57:47;17.60;61.10
46926;DHT22;32667;48.248;-1.700;2023-07-02T07:00:13;17.80;61.00
46926;DHT22;32667;48.248;-1.700;2023-07-02T07:02:39;17.90;60.80
46926;DHT22;32667;48.248;-1.700;2023-07-02T07:05:05;18.00;60.70
46926;DHT22;32667;48.248;-1.700;2023-07-02T07:07:31;18.10;60.60
46926;DHT22;32667;48.248;-1.700;2023-07-02T07:09:57;18.10;60.60
46926;DHT22;32667;48.248;-1.700;2023-07-02T07:12:25;18.20;60.70
46926;DHT22;32667;48.248;-1.700;2023-07-02T07:14:51;18.20;60.70
46926;DHT22;32667;48.248;-1.700;2023-07-02T07:17:17;18.30;60.80
46926;DHT22;32667;48.248;-1.700;2023-07-02T07:19:42;18.30;60.80
46926;DHT22;32667;48.248;-1.700;2023-07-02T07:22:08;18.30;60.80
46926;DHT22;32667;48.248;-1.700;2023-07-02T07:24:34;18.40;60.90
46926;DHT22;32667;48.248;-1.700;2023-07-02T07:27:00;18.40;60.90
46926;DHT22;32667;48.248;-1.700;2023-07-02T07:29:25;18.50;60.90
46926;DHT22;32667;48.248;-1.700;2023-07-02T07:31:51;18.60;60.70
46926;DHT22;32667;48.248;-1.700;2023-07-02T07:34:17;18.70;60.60
46926;DHT22;32667;48.248;-1.700;2023-07-02T07:36:43;18.80;60.50
46926;DHT22;32667;48.248;-1.700;2023-07-02T07:39:08;18.80;60.50
46926;DHT22;32667;48.248;-1.700;2023-07-02T07:41:34;18.80;60.50
46926;DHT22;32667;48.248;-1.700;2023-07-02T07:44:00;18.80;60.70
46926;DHT22;32667;48.248;-1.700;2023-07-02T07:46:27;18.80;60.70
46926;DHT22;32667;48.248;-1.700;2023-07-02T07:48:52;18.90;60.70
46926;DHT22;32667;48.248;-1.700;2023-07-02T07:51:18;18.90;60.60
46926;DHT22;32667;48.248;-1.700;2023-07-02T07:53:44;19.00;60.50
46926;DHT22;32667;48.248;-1.700;2023-07-02T07:56:10;19.00;60.50
46926;DHT22;32667;48.248;-1.700;2023-07-02T07:58:35;19.10;60.50
46926;DHT22;32667;48.248;-1.700;2023-07-02T08:01:01;19.20;60.50
46926;DHT22;32667;48.248;-1.700;2023-07-02T08:03:27;19.20;60.30
46926;DHT22;32667;48.248;-1.700;2023-07-02T08:05:52;19.30;60.40
46926;DHT22;32667;48.248;-1.700;2023-07-02T08:08:25;19.30;60.30
46926;DHT22;32667;48.248;-1.700;2023-07-02T08:10:51;19.30;60.40
46926;DHT22;32667;48.248;-1.700;2023-07-02T08:13:19;19.30;60.40
46926;DHT22;32667;48.248;-1.700;2023-07-02T08:15:47;19.30;60.50
46926;DHT22;32667;48.248;-1.700;2023-07-02T08:18:13;19.20;60.60
46926;DHT22;32667;48.248;-1.700;2023-07-02T08:20:39;19.20;60.60
46926;DHT22;32667;48.248;-1.700;2023-07-02T08:23:05;19.20;60.80
46926;DHT22;32667;48.248;-1.700;2023-07-02T08:25:30;19.20;60.80
46926;DHT22;32667;48.248;-1.700;2023-07-02T08:27:56;19.10;60.90
46926;DHT22;32667;48.248;-1.700;2023-07-02T08:30:22;19.00;61.00
46926;DHT22;32667;48.248;-1.700;2023-07-02T08:32:48;19.10;61.00
46926;DHT22;32667;48.248;-1.700;2023-07-02T08:35:14;19.20;60.90
46926;DHT22;32667;48.248;-1.700;2023-07-02T08:37:40;19.50;60.60
46926;DHT22;32667;48.248;-1.700;2023-07-02T08:40:06;19.60;60.30
46926;DHT22;32667;48.248;-1.700;2023-07-02T08:42:33;19.70;60.10
46926;DHT22;32667;48.248;-1.700;2023-07-02T08:44:59;19.70;60.10
46926;DHT22;32667;48.248;-1.700;2023-07-02T08:47:26;19.70;60.10
46926;DHT22;32667;48.248;-1.700;2023-07-02T08:49:51;19.70;60.20
46926;DHT22;32667;48.248;-1.700;2023-07-02T08:52:17;19.70;60.20
46926;DHT22;32667;48.248;-1.700;2023-07-02T08:54:43;19.80;60.30
46926;DHT22;32667;48.248;-1.700;2023-07-02T08:57:09;19.80;60.20
46926;DHT22;32667;48.248;-1.700;2023-07-02T08:59:38;20.00;60.10
46926;DHT22;32667;48.248;-1.700;2023-07-02T09:02:04;20.10;60.00
46926;DHT22;32667;48.248;-1.700;2023-07-02T09:04:30;20.20;59.80
46926;DHT22;32667;48.248;-1.700;2023-07-02T09:07:08;20.40;59.60
46926;DHT22;32667;48.248;-1.700;2023-07-02T09:09:45;20.50;59.50
46926;DHT22;32667;48.248;-1.700;2023-07-02T09:12:32;20.60;59.30
46926;DHT22;32667;48.248;-1.700;2023-07-02T09:15:00;20.70;59.20
46926;DHT22;32667;48.248;-1.700;2023-07-02T09:17:31;20.70;59.20
46926;DHT22;32667;48.248;-1.700;2023-07-02T09:20:00;20.70;59.40
46926;DHT22;32667;48.248;-1.700;2023-07-02T09:22:26;20.60;59.60
46926;DHT22;32667;48.248;-1.700;2023-07-02T09:24:57;20.60;59.80
46926;DHT22;32667;48.248;-1.700;2023-07-02T09:27:42;20.60;59.80
46926;DHT22;32667;48.248;-1.700;2023-07-02T09:30:13;20.60;59.70
46926;DHT22;32667;48.248;-1.700;2023-07-02T09:32:45;20.70;59.60
46926;DHT22;32667;48.248;-1.700;2023-07-02T09:35:11;20.80;59.50
46926;DHT22;32667;48.248;-1.700;2023-07-02T09:37:38;20.80;59.40
46926;DHT22;32667;48.248;-1.700;2023-07-02T09:40:12;20.80;59.50
46926;DHT22;32667;48.248;-1.700;2023-07-02T09:42:39;20.80;59.60
46926;DHT22;32667;48.248;-1.700;2023-07-02T09:45:08;20.70;59.80
46926;DHT22;32667;48.248;-1.700;2023-07-02T09:47:42;20.70;59.80
46926;DHT22;32667;48.248;-1.700;2023-07-02T09:50:11;20.80;59.70
46926;DHT22;32667;48.248;-1.700;2023-07-02T09:52:41;20.90;59.60
46926;DHT22;32667;48.248;-1.700;2023-07-02T09:55:07;20.90;59.50
46926;DHT22;32667;48.248;-1.700;2023-07-02T09:57:39;21.00;59.50
46926;DHT22;32667;48.248;-1.700;2023-07-02T10:00:05;20.90;59.50
46926;DHT22;32667;48.248;-1.700;2023-07-02T10:02:33;20.90;59.60
46926;DHT22;32667;48.248;-1.700;2023-07-02T10:04:59;20.90;59.60
46926;DHT22;32667;48.248;-1.700;2023-07-02T10:07:29;20.90;59.70
46926;DHT22;32667;48.248;-1.700;2023-07-02T10:09:58;21.00;59.70
46926;DHT22;32667;48.248;-1.700;2023-07-02T10:12:25;21.10;59.50
46926;DHT22;32667;48.248;-1.700;2023-07-02T10:14:53;21.20;59.40
46926;DHT22;32667;48.248;-1.700;2023-07-02T10:17:33;21.20;59.40
46926;DHT22;32667;48.248;-1.700;2023-07-02T10:20:06;21.10;59.50
46926;DHT22;32667;48.248;-1.700;2023-07-02T10:22:43;21.00;59.60
46926;DHT22;32667;48.248;-1.700;2023-07-02T10:25:09;21.00;59.70
46926;DHT22;32667;48.248;-1.700;2023-07-02T10:27:36;21.10;59.70
46926;DHT22;32667;48.248;-1.700;2023-07-02T10:30:09;21.20;60.10
46926;DHT22;32667;48.248;-1.700;2023-07-02T10:32:36;21.30;59.30
46926;DHT22;32667;48.248;-1.700;2023-07-02T10:35:23;21.40;59.20
46926;DHT22;32667;48.248;-1.700;2023-07-02T10:37:51;21.50;59.00
46926;DHT22;32667;48.248;-1.700;2023-07-02T10:40:17;21.60;58.90
46926;DHT22;32667;48.248;-1.700;2023-07-02T10:45:12;21.80;58.70
46926;DHT22;32667;48.248;-1.700;2023-07-02T10:47:41;21.70;58.80
46926;DHT22;32667;48.248;-1.700;2023-07-02T10:52:40;21.70;59.00
46926;DHT22;32667;48.248;-1.700;2023-07-02T10:55:06;21.80;58.90
46926;DHT22;32667;48.248;-1.700;2023-07-02T10:57:32;21.90;58.80
46926;DHT22;32667;48.248;-1.700;2023-07-02T11:00:05;22.00;58.80
46926;DHT22;32667;48.248;-1.700;2023-07-02T11:02:42;21.90;58.80
46926;DHT22;32667;48.248;-1.700;2023-07-02T11:05:10;21.90;58.90
46926;DHT22;32667;48.248;-1.700;2023-07-02T11:07:40;21.80;59.00
46926;DHT22;32667;48.248;-1.700;2023-07-02T11:10:10;21.90;58.90
46926;DHT22;32667;48.248;-1.700;2023-07-02T11:12:42;22.00;58.90
46926;DHT22;32667;48.248;-1.700;2023-07-02T11:15:15;22.10;58.70
46926;DHT22;32667;48.248;-1.700;2023-07-02T11:17:41;22.10;58.70
46926;DHT22;32667;48.248;-1.700;2023-07-02T11:20:12;22.10;58.80
46926;DHT22;32667;48.248;-1.700;2023-07-02T11:22:38;22.10;58.90
46926;DHT22;32667;48.248;-1.700;2023-07-02T11:25:18;22.00;59.00
46926;DHT22;32667;48.248;-1.700;2023-07-02T11:27:45;21.90;59.30
46926;DHT22;32667;48.248;-1.700;2023-07-02T11:30:12;21.80;59.40
46926;DHT22;32667;48.248;-1.700;2023-07-02T11:32:49;21.80;59.40
46926;DHT22;32667;48.248;-1.700;2023-07-02T11:35:15;21.80;59.40
46926;DHT22;32667;48.248;-1.700;2023-07-02T11:37:42;21.80;59.40
46926;DHT22;32667;48.248;-1.700;2023-07-02T11:40:08;21.90;59.40
46926;DHT22;32667;48.248;-1.700;2023-07-02T11:42:34;22.10;59.20
46926;DHT22;32667;48.248;-1.700;2023-07-02T11:45:02;22.30;58.80
46926;DHT22;32667;48.248;-1.700;2023-07-02T11:47:30;22.30;58.50
46926;DHT22;32667;48.248;-1.700;2023-07-02T11:49:56;22.40;58.60
46926;DHT22;32667;48.248;-1.700;2023-07-02T11:52:24;22.50;58.60
46926;DHT22;32667;48.248;-1.700;2023-07-02T11:54:53;22.50;59.20
46926;DHT22;32667;48.248;-1.700;2023-07-02T11:57:20;22.40;58.60
46926;DHT22;32667;48.248;-1.700;2023-07-02T11:59:47;22.40;58.70
46926;DHT22;32667;48.248;-1.700;2023-07-02T12:02:12;22.30;58.80
46926;DHT22;32667;48.248;-1.700;2023-07-02T12:04:38;22.30;58.90
46926;DHT22;32667;48.248;-1.700;2023-07-02T12:07:06;22.30;59.60
46926;DHT22;32667;48.248;-1.700;2023-07-02T12:09:32;22.30;59.00
46926;DHT22;32667;48.248;-1.700;2023-07-02T12:11:58;22.30;59.10
46926;DHT22;32667;48.248;-1.700;2023-07-02T12:14:24;22.20;59.10
46926;DHT22;32667;48.248;-1.700;2023-07-02T12:16:49;22.10;59.20
46926;DHT22;32667;48.248;-1.700;2023-07-02T12:19:17;22.10;59.30
46926;DHT22;32667;48.248;-1.700;2023-07-02T12:21:43;22.10;59.40
46926;DHT22;32667;48.248;-1.700;2023-07-02T12:24:09;22.00;59.40
46926;DHT22;32667;48.248;-1.700;2023-07-02T12:26:36;22.00;59.50
46926;DHT22;32667;48.248;-1.700;2023-07-02T12:29:02;21.90;59.60
46926;DHT22;32667;48.248;-1.700;2023-07-02T12:31:30;21.90;59.80
46926;DHT22;32667;48.248;-1.700;2023-07-02T12:33:55;21.80;59.80
46926;DHT22;32667;48.248;-1.700;2023-07-02T12:36:21;21.80;59.80
46926;DHT22;32667;48.248;-1.700;2023-07-02T12:38:47;21.80;59.80
46926;DHT22;32667;48.248;-1.700;2023-07-02T12:41:13;21.70;60.00
46926;DHT22;32667;48.248;-1.700;2023-07-02T12:43:41;21.60;60.00
46926;DHT22;32667;48.248;-1.700;2023-07-02T12:46:09;21.60;60.00
46926;DHT22;32667;48.248;-1.700;2023-07-02T12:48:34;21.60;60.10
46926;DHT22;32667;48.248;-1.700;2023-07-02T12:51:00;21.60;60.00
46926;DHT22;32667;48.248;-1.700;2023-07-02T12:53:29;21.70;59.80
46926;DHT22;32667;48.248;-1.700;2023-07-02T12:55:55;21.80;59.70
46926;DHT22;32667;48.248;-1.700;2023-07-02T12:58:21;21.80;59.60
46926;DHT22;32667;48.248;-1.700;2023-07-02T13:00:47;21.90;59.60
46926;DHT22;32667;48.248;-1.700;2023-07-02T13:03:13;22.00;59.50
46926;DHT22;32667;48.248;-1.700;2023-07-02T13:05:39;22.10;59.20
46926;DHT22;32667;48.248;-1.700;2023-07-02T13:08:06;22.10;59.00
46926;DHT22;32667;48.248;-1.700;2023-07-02T13:10:33;22.20;59.10
46926;DHT22;32667;48.248;-1.700;2023-07-02T13:12:59;22.20;59.10
46926;DHT22;32667;48.248;-1.700;2023-07-02T13:15:27;22.20;59.00
46926;DHT22;32667;48.248;-1.700;2023-07-02T13:17:53;22.20;59.00
46926;DHT22;32667;48.248;-1.700;2023-07-02T13:20:22;22.20;59.10
46926;DHT22;32667;48.248;-1.700;2023-07-02T13:22:49;22.20;59.20
46926;DHT22;32667;48.248;-1.700;2023-07-02T13:25:15;22.10;59.40
46926;DHT22;32667;48.248;-1.700;2023-07-02T13:27:41;22.00;59.50
46926;DHT22;32667;48.248;-1.700;2023-07-02T13:30:07;22.00;59.70
46926;DHT22;32667;48.248;-1.700;2023-07-02T13:32:33;22.00;59.70
46926;DHT22;32667;48.248;-1.700;2023-07-02T13:34:59;22.00;59.60
46926;DHT22;32667;48.248;-1.700;2023-07-02T13:37:24;22.00;59.50
46926;DHT22;32667;48.248;-1.700;2023-07-02T13:39:51;22.10;59.50
46926;DHT22;32667;48.248;-1.700;2023-07-02T13:42:20;22.10;59.40
46926;DHT22;32667;48.248;-1.700;2023-07-02T13:44:49;22.10;59.50
46926;DHT22;32667;48.248;-1.700;2023-07-02T13:47:14;22.00;59.50
46926;DHT22;32667;48.248;-1.700;2023-07-02T13:49:42;21.90;59.60
46926;DHT22;32667;48.248;-1.700;2023-07-02T13:52:11;21.90;59.70
46926;DHT22;32667;48.248;-1.700;2023-07-02T13:54:37;21.90;59.70
46926;DHT22;32667;48.248;-1.700;2023-07-02T13:57:03;21.90;59.80
46926;DHT22;32667;48.248;-1.700;2023-07-02T13:59:29;21.80;59.70
46926;DHT22;32667;48.248;-1.700;2023-07-02T14:01:55;21.90;59.70
46926;DHT22;32667;48.248;-1.700;2023-07-02T14:04:20;21.90;59.70
46926;DHT22;32667;48.248;-1.700;2023-07-02T14:06:46;21.90;59.60
46926;DHT22;32667;48.248;-1.700;2023-07-02T14:09:12;21.90;59.50
46926;DHT22;32667;48.248;-1.700;2023-07-02T14:11:39;21.90;59.50
46926;DHT22;32667;48.248;-1.700;2023-07-02T14:14:06;21.90;59.50
46926;DHT22;32667;48.248;-1.700;2023-07-02T14:16:32;21.90;59.50
46926;DHT22;32667;48.248;-1.700;2023-07-02T14:18:58;21.90;59.60
46926;DHT22;32667;48.248;-1.700;2023-07-02T14:21:24;21.90;59.60
46926;DHT22;32667;48.248;-1.700;2023-07-02T14:23:50;21.90;59.60
46926;DHT22;32667;48.248;-1.700;2023-07-02T14:26:18;21.90;59.70
46926;DHT22;32667;48.248;-1.700;2023-07-02T14:28:44;21.80;59.70
46926;DHT22;32667;48.248;-1.700;2023-07-02T14:31:10;21.80;59.80
46926;DHT22;32667;48.248;-1.700;2023-07-02T14:33:37;21.80;59.80
46926;DHT22;32667;48.248;-1.700;2023-07-02T14:36:04;21.80;59.80
46926;DHT22;32667;48.248;-1.700;2023-07-02T14:38:30;21.70;59.80
46926;DHT22;32667;48.248;-1.700;2023-07-02T14:40:56;21.70;59.80
46926;DHT22;32667;48.248;-1.700;2023-07-02T14:43:27;21.70;59.80
46926;DHT22;32667;48.248;-1.700;2023-07-02T14:45:54;21.70;59.80
46926;DHT22;32667;48.248;-1.700;2023-07-02T14:48:21;21.70;59.80
46926;DHT22;32667;48.248;-1.700;2023-07-02T14:50:55;21.70;59.80
46926;DHT22;32667;48.248;-1.700;2023-07-02T14:53:23;21.70;59.80
46926;DHT22;32667;48.248;-1.700;2023-07-02T14:55:49;21.70;59.80
46926;DHT22;32667;48.248;-1.700;2023-07-02T14:58:17;21.70;59.80
46926;DHT22;32667;48.248;-1.700;2023-07-02T15:00:48;21.70;59.80
46926;DHT22;32667;48.248;-1.700;2023-07-02T15:03:15;21.80;59.80
46926;DHT22;32667;48.248;-1.700;2023-07-02T15:05:41;21.90;59.60
46926;DHT22;32667;48.248;-1.700;2023-07-02T15:08:10;21.90;59.50
46926;DHT22;32667;48.248;-1.700;2023-07-02T15:10:40;21.90;59.50
46926;DHT22;32667;48.248;-1.700;2023-07-02T15:13:07;21.90;59.40
46926;DHT22;32667;48.248;-1.700;2023-07-02T15:15:34;22.00;59.40
46926;DHT22;32667;48.248;-1.700;2023-07-02T15:18:03;22.10;59.40
46926;DHT22;32667;48.248;-1.700;2023-07-02T15:20:29;22.10;59.20